createdAt,value
2019-04-26T00:04:28.493Z,1.80
2019-04-26T00:11:18.174Z,1.50
2019-04-26T00:18:04.724Z,1.60
2019-04-26T00:24:50.616Z,2.43
2019-04-26T00:31:35.454Z,2.10
2019-04-26T00:38:20.488Z,2.00
2019-04-26T00:45:06.571Z,1.90
2019-04-26T00:51:52.132Z,1.70
2019-04-26T00:58:38.503Z,1.83
2019-04-26T01:05:25.143Z,1.67
2019-04-26T01:12:10.619Z,2.37
2019-04-26T01:18:56.812Z,1.77
2019-04-26T01:25:50.818Z,1.70
2019-04-26T01:32:38.815Z,1.80
2019-04-26T01:39:24.283Z,1.90
2019-04-26T01:46:16.293Z,1.70
2019-04-26T01:53:02.082Z,1.50
2019-04-26T01:59:51.579Z,1.73
2019-04-26T02:06:36.684Z,1.77
2019-04-26T02:13:24.829Z,1.60
2019-04-26T02:20:09.612Z,1.67
2019-04-26T02:26:54.984Z,1.50
2019-04-26T02:33:39.911Z,1.53
2019-04-26T02:40:26.125Z,1.30
2019-04-26T02:47:39.018Z,1.50
2019-04-26T02:54:29.685Z,1.60
2019-04-26T03:01:14.946Z,2.00
2019-04-26T03:08:03.922Z,1.60
2019-04-26T03:15:12.197Z,1.60
2019-04-26T03:21:52.787Z,1.63
2019-04-26T03:28:43.922Z,1.90
2019-04-26T03:35:57.347Z,1.47
2019-04-26T03:42:59.097Z,1.70
2019-04-26T03:49:55.749Z,1.80
2019-04-26T03:56:49.144Z,2.37
2019-04-26T04:03:41.622Z,1.80
2019-04-26T04:10:28.556Z,1.80
2019-04-26T04:17:23.501Z,1.67
2019-04-26T04:24:11.202Z,1.70
2019-04-26T04:30:59.361Z,1.90
2019-04-26T04:38:09.570Z,1.90
2019-04-26T04:45:26.065Z,2.07
2019-04-26T04:52:19.694Z,2.03
2019-04-26T04:59:13.544Z,1.87
2019-04-26T05:06:09.010Z,1.93
2019-04-26T05:12:59.697Z,2.03
2019-04-26T05:20:03.127Z,1.90
2019-04-26T05:27:20.141Z,2.00
2019-04-26T05:34:41.144Z,2.43
2019-04-26T05:41:57.797Z,2.13
2019-04-26T05:48:56.404Z,1.90
2019-04-26T05:56:05.017Z,1.93
2019-04-26T06:03:11.127Z,1.97
2019-04-26T06:10:09.542Z,1.70
2019-04-26T06:17:13.494Z,1.50
2019-04-26T06:24:07.122Z,2.27
2019-04-26T06:30:57.210Z,1.80
2019-04-26T06:38:12.111Z,2.20
2019-04-26T06:45:07.728Z,3.57
2019-04-26T06:51:58.498Z,1.30
2019-04-26T06:59:09.019Z,1.43
2019-04-26T07:06:04.425Z,1.33
2019-04-26T07:13:28.671Z,1.30
2019-04-26T07:20:21.711Z,1.53
2019-04-26T07:27:18.992Z,1.50
2019-04-26T07:34:11.636Z,1.40
2019-04-26T07:41:09.856Z,1.60
2019-04-26T07:48:19.734Z,1.17
2019-04-26T07:55:24.325Z,1.70
2019-04-26T08:02:13.991Z,1.40
2019-04-26T08:09:25.056Z,1.40
2019-04-26T08:16:06.729Z,1.30
2019-04-26T08:22:54.963Z,1.87
2019-04-26T08:29:43.407Z,1.47
2019-04-26T08:36:32.757Z,1.80
2019-04-26T08:43:37.394Z,1.73
2019-04-26T08:50:25.047Z,1.70
2019-04-26T08:57:12.615Z,1.50
2019-04-26T09:04:13.982Z,1.20
2019-04-26T09:11:01.723Z,1.53
2019-04-26T09:17:46.735Z,1.43
2019-04-26T09:24:36.010Z,1.37
2019-04-26T09:31:25.607Z,1.27
2019-04-26T09:38:10.607Z,1.70
2019-04-26T09:45:13.467Z,0.80
2019-04-26T09:51:58.822Z,1.00
2019-04-26T09:58:43.692Z,1.27
2019-04-26T10:05:29.072Z,1.20
2019-04-26T10:12:16.219Z,1.20
2019-04-26T10:19:04.149Z,1.17
2019-04-26T10:25:52.026Z,1.53
2019-04-26T10:32:36.163Z,1.30
2019-04-26T10:39:21.206Z,1.20
2019-04-26T10:46:06.531Z,1.23
2019-04-26T10:53:08.704Z,1.60
2019-04-26T10:59:55.247Z,1.47
2019-04-26T11:06:41.247Z,1.20
2019-04-26T11:13:26.558Z,1.07
2019-04-26T11:20:12.066Z,1.20
2019-04-26T11:26:57.118Z,1.00
2019-04-26T11:33:44.951Z,1.10
2019-04-26T11:40:30.364Z,1.00
2019-04-26T11:47:15.496Z,1.20
2019-04-26T11:54:00.600Z,1.10
2019-04-26T12:00:47.333Z,0.90
2019-04-26T12:07:34.017Z,1.03
2019-04-26T12:14:20.379Z,1.10
2019-04-26T12:21:06.131Z,1.03
2019-04-26T12:27:53.605Z,1.20
2019-04-26T12:34:38.723Z,1.07
2019-04-26T12:41:39.476Z,1.30
2019-04-26T12:48:12.403Z,0.80
2019-04-26T12:54:58.681Z,1.60
2019-04-26T13:01:46.366Z,0.87
2019-04-26T13:08:30.659Z,0.60
2019-04-26T13:15:52.056Z,0.80
2019-04-26T13:22:45.849Z,1.17
2019-04-26T13:29:27.261Z,0.90
2019-04-26T13:36:10.560Z,0.90
2019-04-26T13:42:55.557Z,1.17
2019-04-26T13:49:42.510Z,0.80
2019-04-26T13:56:27.669Z,0.90
2019-04-26T14:03:15.262Z,1.30
2019-04-26T14:10:00.363Z,1.30
2019-04-26T14:16:45.411Z,1.10
2019-04-26T14:23:45.340Z,0.90
2019-04-26T14:30:31.423Z,1.40
2019-04-26T14:37:16.727Z,0.80
2019-04-26T14:44:14.780Z,0.80
2019-04-26T14:50:53.010Z,1.07
2019-04-26T14:57:35.762Z,1.40
2019-04-26T15:04:34.392Z,1.03
2019-04-26T15:11:19.671Z,1.20
2019-04-26T15:18:05.280Z,1.60
2019-04-26T15:24:52.241Z,1.13
2019-04-26T15:31:37.333Z,1.00
2019-04-26T15:38:23.293Z,1.30
2019-04-26T15:45:15.852Z,0.93
2019-04-26T15:52:00.941Z,1.13
2019-04-26T15:58:48.913Z,0.90
2019-04-26T16:05:33.664Z,1.20
2019-04-26T16:12:20.289Z,1.40
2019-04-26T16:19:05.935Z,1.20
2019-04-26T16:25:52.538Z,0.83
2019-04-26T16:32:59.921Z,1.00
2019-04-26T16:39:48.587Z,1.10
2019-04-26T16:46:33.350Z,0.90
2019-04-26T16:53:37.789Z,1.03
2019-04-26T17:00:06.527Z,1.10
2019-04-26T17:06:53.084Z,0.98
2019-04-26T17:13:48.222Z,1.13
2019-04-26T17:20:24.894Z,1.20
2019-04-26T17:27:14.390Z,1.10
2019-04-26T17:33:58.315Z,1.23
2019-04-26T17:40:46.153Z,1.40
2019-04-26T17:47:34.687Z,1.40
2019-04-26T17:54:40.446Z,1.40
2019-04-26T18:01:05.173Z,1.60
2019-04-26T18:07:58.001Z,1.67
2019-04-26T18:14:37.258Z,1.50
2019-04-26T18:21:30.145Z,1.23
2019-04-26T18:28:16.744Z,1.10
2019-04-26T18:35:02.136Z,1.40
2019-04-26T18:41:47.907Z,1.57
2019-04-26T18:48:35.244Z,2.20
2019-04-26T18:55:28.887Z,2.00
2019-04-26T19:02:11.561Z,2.20
2019-04-26T19:08:57.588Z,2.97
2019-04-26T19:16:01.865Z,3.20
2019-04-26T19:22:53.211Z,3.23
2019-04-26T19:29:37.547Z,5.57
2019-04-26T19:36:26.169Z,4.23
2019-04-26T19:43:12.105Z,4.23
2019-04-26T19:50:03.081Z,4.03
2019-04-26T19:57:01.033Z,3.20
2019-04-26T20:03:47.370Z,3.00
2019-04-26T20:10:36.211Z,2.63
2019-04-26T20:17:21.812Z,2.27
2019-04-26T20:24:06.995Z,2.43
2019-04-26T20:31:12.190Z,2.97
2019-04-26T20:38:06.179Z,2.10
2019-04-26T20:44:53.809Z,2.17
2019-04-26T20:51:40.761Z,2.10
2019-04-26T20:58:26.076Z,2.67
2019-04-26T21:05:14.707Z,1.90
2019-04-26T21:11:58.146Z,1.92
2019-04-26T21:18:44.392Z,1.90
2019-04-26T21:25:32.562Z,1.80
2019-04-26T21:32:24.615Z,1.70
2019-04-26T21:39:10.636Z,1.53
2019-04-26T21:46:07.303Z,2.00
2019-04-26T21:52:43.342Z,1.87
2019-04-26T21:59:35.216Z,1.80
2019-04-26T22:06:19.804Z,1.77
2019-04-26T22:13:05.688Z,1.70
2019-04-26T22:20:12.940Z,2.07
2019-04-26T22:26:56.369Z,1.90
2019-04-26T22:33:42.847Z,1.80
2019-04-26T22:40:28.203Z,2.87
2019-04-26T22:47:24.467Z,2.67
2019-04-26T22:54:09.644Z,2.97
2019-04-26T23:00:58.425Z,4.40
2019-04-26T23:07:41.609Z,2.80
2019-04-26T23:14:34.357Z,4.27
2019-04-26T23:21:25.023Z,3.23
2019-04-26T23:28:11.204Z,3.00
2019-04-26T23:34:58.207Z,2.60
2019-04-26T23:41:44.592Z,3.43
2019-04-26T23:48:29.917Z,3.37
2019-04-26T23:55:15.118Z,3.57
